Seattle, WA

5:13 AM PST on March 02, 2015 (GMT -0800)
Herrera, Inc. | Change Station
CLOSE
Current Station
Personal Weather Station
Location: Seattle, WA
Elevation: 121 ft
Nearby Weather Stations

Elev 121 ft 47.62 °N, 122.34 °W | Updated 5 seconds ago

Overcast
Overcast
43.4 °F
Feels Like 43 °F
N
0.0
Wind Variable Wind from SE
Gusts 8.0 mph

Today
High -- | Low -- °F
--% Chance of Precip.
Yesterday
High -- | Low -- °F
Precip. -- in
6:48 AM 5:55 PM
Waxing Gibbous, 91% visible
Pressure 30.00 in
Visibility 10.0 miles
Clouds Scattered Clouds 1800 ft
Overcast 6000 ft
Windchill 43 °F
Dew Point 38 °F
Humidity 81%
Rainfall 0.00 in
Snow Depth Not available.
UV 0 out of 12
Pollen 8.00 out of 12
Air Quality Not available.
Flu Activity Not available.
METAR KBFI 021253Z 35007KT 10SM SCT018 OVC060 08/02 A3000 RMK AO2 SLP158 T00780022

More Conditions Fewer Conditions

Pressure 30.00 in
Visibility 10.0 miles
Clouds Scattered Clouds 1800 ft
Overcast 6000 ft
Windchill 43 °F
Dew Point 38 °F
Humidity 81%
Rainfall 0.00 in
Snow Depth Not available.
UV 0 out of 12
Pollen 8.00 out of 12
Air Quality Not available.
Flu Activity Not available.
METAR KBFI 021253Z 35007KT 10SM SCT018 OVC060 08/02 A3000 RMK AO2 SLP158 T00780022

More Conditions Fewer Conditions

10-Day Weather Forecast

Almanac

Astronomy

Mar. 02, 2015 Rise Set
Actual Time
Civil Twilight
Nautical Twilight
Astronomical Twilight
Moon
Length of Visible Light
Length of Day
Tomorrow will be .
, % of the Moon is Illuminated

Today's Extremes

State Highs State Lows

Community

WunderPhotos

Upload Photos

1,801,781 photos uploaded!

WunderBlogs® & News

Nearby

Air Quality

  Air Quality AQ Index Pollutant
Not available.

Snow Depth

Station Depth Elevation

Earthquake Activity

City Distance Mag. Time & Date
Minimum magnitude displayed is 2.5.

Coastal Water Temperatures

Place Temperature

Nearby Weather Stations